sensor_id;sensor_type;location;lat;lon;timestamp;P1;durP1;ratioP1;P2;durP2;ratioP2
80247;SDS011;69560;52.206;21.018;2024-03-22T00:01:52;54.40;;;37.40;;
80247;SDS011;69560;52.206;21.018;2024-03-22T00:04:20;50.30;;;35.70;;
80247;SDS011;69560;52.206;21.018;2024-03-22T00:06:47;50.80;;;37.20;;
80247;SDS011;69560;52.206;21.018;2024-03-22T00:09:15;56.10;;;37.60;;
80247;SDS011;69560;52.206;21.018;2024-03-22T00:11:43;51.00;;;35.70;;
80247;SDS011;69560;52.206;21.018;2024-03-22T00:14:10;54.40;;;36.00;;
80247;SDS011;69560;52.206;21.018;2024-03-22T00:16:37;52.10;;;36.20;;
80247;SDS011;69560;52.206;21.018;2024-03-22T00:19:04;51.80;;;35.00;;
80247;SDS011;69560;52.206;21.018;2024-03-22T00:21:30;54.90;;;37.30;;
80247;SDS011;69560;52.206;21.018;2024-03-22T00:23:57;53.50;;;38.20;;
80247;SDS011;69560;52.206;21.018;2024-03-22T00:26:24;115.60;;;86.00;;
80247;SDS011;69560;52.206;21.018;2024-03-22T00:28:50;105.20;;;78.90;;
80247;SDS011;69560;52.206;21.018;2024-03-22T00:31:17;68.60;;;47.50;;
80247;SDS011;69560;52.206;21.018;2024-03-22T00:33:43;58.00;;;41.30;;
80247;SDS011;69560;52.206;21.018;2024-03-22T00:36:10;53.10;;;37.40;;
80247;SDS011;69560;52.206;21.018;2024-03-22T00:38:36;55.50;;;38.90;;
80247;SDS011;69560;52.206;21.018;2024-03-22T00:41:03;52.40;;;35.90;;
80247;SDS011;69560;52.206;21.018;2024-03-22T00:43:29;54.40;;;37.90;;
80247;SDS011;69560;52.206;21.018;2024-03-22T00:45:56;56.80;;;38.10;;
80247;SDS011;69560;52.206;21.018;2024-03-22T00:48:23;56.50;;;38.20;;
80247;SDS011;69560;52.206;21.018;2024-03-22T00:50:49;58.00;;;38.20;;
80247;SDS011;69560;52.206;21.018;2024-03-22T00:53:15;54.50;;;38.30;;
80247;SDS011;69560;52.206;21.018;2024-03-22T00:55:43;51.40;;;37.10;;
80247;SDS011;69560;52.206;21.018;2024-03-22T00:58:09;53.10;;;37.90;;
80247;SDS011;69560;52.206;21.018;2024-03-22T01:00:36;56.90;;;39.50;;
80247;SDS011;69560;52.206;21.018;2024-03-22T01:03:04;54.70;;;38.60;;
80247;SDS011;69560;52.206;21.018;2024-03-22T01:05:30;54.40;;;38.40;;
80247;SDS011;69560;52.206;21.018;2024-03-22T01:07:56;58.60;;;40.60;;
80247;SDS011;69560;52.206;21.018;2024-03-22T01:10:23;54.80;;;40.40;;
80247;SDS011;69560;52.206;21.018;2024-03-22T01:12:49;53.70;;;38.00;;
80247;SDS011;69560;52.206;21.018;2024-03-22T01:15:16;53.00;;;38.20;;
80247;SDS011;69560;52.206;21.018;2024-03-22T01:17:43;51.40;;;37.20;;
80247;SDS011;69560;52.206;21.018;2024-03-22T01:20:09;54.40;;;39.70;;
80247;SDS011;69560;52.206;21.018;2024-03-22T01:22:36;56.30;;;40.10;;
80247;SDS011;69560;52.206;21.018;2024-03-22T01:25:03;56.60;;;41.50;;
80247;SDS011;69560;52.206;21.018;2024-03-22T01:27:30;59.70;;;42.20;;
80247;SDS011;69560;52.206;21.018;2024-03-22T01:29:56;59.90;;;41.90;;
80247;SDS011;69560;52.206;21.018;2024-03-22T01:32:23;59.10;;;41.80;;
80247;SDS011;69560;52.206;21.018;2024-03-22T01:34:49;58.30;;;41.00;;
80247;SDS011;69560;52.206;21.018;2024-03-22T01:37:15;58.60;;;39.70;;
80247;SDS011;69560;52.206;21.018;2024-03-22T01:39:42;58.70;;;40.60;;
80247;SDS011;69560;52.206;21.018;2024-03-22T01:42:09;59.10;;;42.70;;
80247;SDS011;69560;52.206;21.018;2024-03-22T01:44:35;58.00;;;42.90;;
80247;SDS011;69560;52.206;21.018;2024-03-22T01:47:01;59.90;;;42.70;;
80247;SDS011;69560;52.206;21.018;2024-03-22T01:49:28;63.50;;;43.90;;
80247;SDS011;69560;52.206;21.018;2024-03-22T01:51:56;63.80;;;43.80;;
80247;SDS011;69560;52.206;21.018;2024-03-22T01:54:23;63.40;;;42.40;;
80247;SDS011;69560;52.206;21.018;2024-03-22T01:56:49;62.60;;;42.80;;
80247;SDS011;69560;52.206;21.018;2024-03-22T01:59:16;60.00;;;42.40;;
80247;SDS011;69560;52.206;21.018;2024-03-22T02:01:43;57.80;;;42.60;;
80247;SDS011;69560;52.206;21.018;2024-03-22T02:04:10;67.00;;;43.80;;
80247;SDS011;69560;52.206;21.018;2024-03-22T02:06:36;62.00;;;43.30;;
80247;SDS011;69560;52.206;21.018;2024-03-22T02:09:03;59.80;;;42.60;;
80247;SDS011;69560;52.206;21.018;2024-03-22T02:11:31;60.40;;;42.60;;
80247;SDS011;69560;52.206;21.018;2024-03-22T02:13:58;64.30;;;41.40;;
80247;SDS011;69560;52.206;21.018;2024-03-22T02:16:24;61.30;;;42.20;;
80247;SDS011;69560;52.206;21.018;2024-03-22T02:18:50;60.50;;;41.00;;
80247;SDS011;69560;52.206;21.018;2024-03-22T02:21:17;66.00;;;43.30;;
80247;SDS011;69560;52.206;21.018;2024-03-22T02:23:43;58.00;;;41.80;;
80247;SDS011;69560;52.206;21.018;2024-03-22T02:26:10;67.60;;;43.80;;
80247;SDS011;69560;52.206;21.018;2024-03-22T02:28:36;64.70;;;43.70;;
80247;SDS011;69560;52.206;21.018;2024-03-22T02:31:03;65.80;;;43.00;;
80247;SDS011;69560;52.206;21.018;2024-03-22T02:33:30;65.80;;;41.90;;
80247;SDS011;69560;52.206;21.018;2024-03-22T02:35:56;62.00;;;42.00;;
80247;SDS011;69560;52.206;21.018;2024-03-22T02:38:23;56.70;;;38.80;;
80247;SDS011;69560;52.206;21.018;2024-03-22T02:40:52;60.70;;;40.20;;
80247;SDS011;69560;52.206;21.018;2024-03-22T02:43:19;59.30;;;39.60;;
80247;SDS011;69560;52.206;21.018;2024-03-22T02:45:47;61.10;;;40.50;;
80247;SDS011;69560;52.206;21.018;2024-03-22T02:48:14;57.30;;;38.60;;
80247;SDS011;69560;52.206;21.018;2024-03-22T02:50:41;57.60;;;40.30;;
80247;SDS011;69560;52.206;21.018;2024-03-22T02:53:07;56.20;;;40.40;;
80247;SDS011;69560;52.206;21.018;2024-03-22T02:55:37;60.60;;;40.10;;
80247;SDS011;69560;52.206;21.018;2024-03-22T02:58:05;60.40;;;40.10;;
80247;SDS011;69560;52.206;21.018;2024-03-22T03:00:36;58.60;;;38.40;;
80247;SDS011;69560;52.206;21.018;2024-03-22T03:03:04;56.00;;;37.00;;
80247;SDS011;69560;52.206;21.018;2024-03-22T03:05:32;58.40;;;38.00;;
80247;SDS011;69560;52.206;21.018;2024-03-22T03:07:59;59.40;;;40.20;;
80247;SDS011;69560;52.206;21.018;2024-03-22T03:10:25;60.10;;;40.20;;
80247;SDS011;69560;52.206;21.018;2024-03-22T03:12:54;62.60;;;41.00;;
80247;SDS011;69560;52.206;21.018;2024-03-22T03:15:21;66.20;;;41.50;;
80247;SDS011;69560;52.206;21.018;2024-03-22T03:17:47;59.60;;;39.70;;
80247;SDS011;69560;52.206;21.018;2024-03-22T03:20:14;65.80;;;41.00;;
80247;SDS011;69560;52.206;21.018;2024-03-22T03:22:41;68.10;;;40.40;;
80247;SDS011;69560;52.206;21.018;2024-03-22T03:25:08;62.10;;;40.80;;
80247;SDS011;69560;52.206;21.018;2024-03-22T03:27:34;66.00;;;41.70;;
80247;SDS011;69560;52.206;21.018;2024-03-22T03:30:01;65.40;;;41.30;;
80247;SDS011;69560;52.206;21.018;2024-03-22T03:32:28;61.90;;;40.70;;
80247;SDS011;69560;52.206;21.018;2024-03-22T03:34:55;64.50;;;41.60;;
80247;SDS011;69560;52.206;21.018;2024-03-22T03:37:21;66.70;;;41.90;;
80247;SDS011;69560;52.206;21.018;2024-03-22T03:39:48;64.60;;;38.80;;
80247;SDS011;69560;52.206;21.018;2024-03-22T03:42:14;61.90;;;39.80;;
80247;SDS011;69560;52.206;21.018;2024-03-22T03:44:40;63.50;;;39.40;;
80247;SDS011;69560;52.206;21.018;2024-03-22T03:47:08;59.20;;;38.00;;
80247;SDS011;69560;52.206;21.018;2024-03-22T03:49:34;55.20;;;36.40;;
80247;SDS011;69560;52.206;21.018;2024-03-22T03:52:01;59.90;;;37.20;;
80247;SDS011;69560;52.206;21.018;2024-03-22T03:54:27;55.50;;;38.20;;
80247;SDS011;69560;52.206;21.018;2024-03-22T03:56:54;59.40;;;38.90;;
80247;SDS011;69560;52.206;21.018;2024-03-22T03:59:20;56.30;;;37.30;;
80247;SDS011;69560;52.206;21.018;2024-03-22T04:01:47;52.90;;;36.10;;
80247;SDS011;69560;52.206;21.018;2024-03-22T04:04:14;51.20;;;33.30;;
80247;SDS011;69560;52.206;21.018;2024-03-22T04:06:41;52.30;;;34.80;;
80247;SDS011;69560;52.206;21.018;2024-03-22T04:09:07;56.40;;;34.30;;
80247;SDS011;69560;52.206;21.018;2024-03-22T04:11:33;52.30;;;33.90;;
80247;SDS011;69560;52.206;21.018;2024-03-22T04:14:00;55.20;;;35.50;;
80247;SDS011;69560;52.206;21.018;2024-03-22T04:16:26;57.20;;;35.20;;
80247;SDS011;69560;52.206;21.018;2024-03-22T04:18:53;53.80;;;31.80;;
80247;SDS011;69560;52.206;21.018;2024-03-22T04:21:19;51.70;;;32.20;;
80247;SDS011;69560;52.206;21.018;2024-03-22T04:23:46;51.20;;;31.00;;
80247;SDS011;69560;52.206;21.018;2024-03-22T04:26:12;48.30;;;30.90;;
80247;SDS011;69560;52.206;21.018;2024-03-22T04:28:39;46.50;;;30.60;;
80247;SDS011;69560;52.206;21.018;2024-03-22T04:31:06;53.20;;;33.60;;
80247;SDS011;69560;52.206;21.018;2024-03-22T04:33:36;51.10;;;31.80;;
80247;SDS011;69560;52.206;21.018;2024-03-22T04:36:04;46.20;;;30.30;;
80247;SDS011;69560;52.206;21.018;2024-03-22T04:38:30;51.40;;;31.90;;
80247;SDS011;69560;52.206;21.018;2024-03-22T04:40:57;45.40;;;29.80;;
80247;SDS011;69560;52.206;21.018;2024-03-22T04:43:24;45.50;;;29.40;;
80247;SDS011;69560;52.206;21.018;2024-03-22T04:45:50;42.90;;;28.80;;
80247;SDS011;69560;52.206;21.018;2024-03-22T04:48:18;48.20;;;31.20;;
80247;SDS011;69560;52.206;21.018;2024-03-22T04:50:47;45.20;;;30.10;;
80247;SDS011;69560;52.206;21.018;2024-03-22T04:53:19;48.20;;;31.60;;
80247;SDS011;69560;52.206;21.018;2024-03-22T04:55:50;51.60;;;33.20;;
80247;SDS011;69560;52.206;21.018;2024-03-22T04:58:17;58.30;;;37.20;;
80247;SDS011;69560;52.206;21.018;2024-03-22T05:00:45;56.00;;;36.20;;
80247;SDS011;69560;52.206;21.018;2024-03-22T05:03:12;58.30;;;36.20;;
80247;SDS011;69560;52.206;21.018;2024-03-22T05:05:40;58.50;;;35.00;;
80247;SDS011;69560;52.206;21.018;2024-03-22T05:08:07;60.20;;;36.00;;
80247;SDS011;69560;52.206;21.018;2024-03-22T05:10:34;61.30;;;37.60;;
80247;SDS011;69560;52.206;21.018;2024-03-22T05:13:00;57.70;;;35.80;;
80247;SDS011;69560;52.206;21.018;2024-03-22T05:15:27;58.30;;;37.30;;
80247;SDS011;69560;52.206;21.018;2024-03-22T05:17:56;65.60;;;38.60;;
80247;SDS011;69560;52.206;21.018;2024-03-22T05:20:23;59.10;;;38.00;;
80247;SDS011;69560;52.206;21.018;2024-03-22T05:22:50;62.30;;;38.80;;
80247;SDS011;69560;52.206;21.018;2024-03-22T05:25:16;57.90;;;38.70;;
80247;SDS011;69560;52.206;21.018;2024-03-22T05:27:43;56.60;;;37.50;;
80247;SDS011;69560;52.206;21.018;2024-03-22T05:30:10;55.60;;;36.70;;
80247;SDS011;69560;52.206;21.018;2024-03-22T05:32:38;55.70;;;36.50;;
80247;SDS011;69560;52.206;21.018;2024-03-22T05:35:06;51.80;;;33.00;;
80247;SDS011;69560;52.206;21.018;2024-03-22T05:37:33;54.60;;;35.40;;
80247;SDS011;69560;52.206;21.018;2024-03-22T05:40:00;54.40;;;34.90;;
80247;SDS011;69560;52.206;21.018;2024-03-22T05:42:29;49.80;;;33.80;;
80247;SDS011;69560;52.206;21.018;2024-03-22T05:44:55;54.70;;;34.60;;
80247;SDS011;69560;52.206;21.018;2024-03-22T05:47:22;49.40;;;34.80;;
80247;SDS011;69560;52.206;21.018;2024-03-22T05:49:48;50.40;;;33.00;;
80247;SDS011;69560;52.206;21.018;2024-03-22T05:52:15;48.00;;;31.50;;
80247;SDS011;69560;52.206;21.018;2024-03-22T05:54:41;49.70;;;32.30;;
80247;SDS011;69560;52.206;21.018;2024-03-22T05:57:08;49.80;;;31.90;;
80247;SDS011;69560;52.206;21.018;2024-03-22T05:59:35;45.60;;;30.70;;
80247;SDS011;69560;52.206;21.018;2024-03-22T06:02:02;44.20;;;29.90;;
80247;SDS011;69560;52.206;21.018;2024-03-22T06:04:28;45.40;;;30.80;;
80247;SDS011;69560;52.206;21.018;2024-03-22T06:06:54;44.80;;;29.80;;
80247;SDS011;69560;52.206;21.018;2024-03-22T06:09:21;41.70;;;29.10;;
80247;SDS011;69560;52.206;21.018;2024-03-22T06:12:00;40.80;;;28.00;;
80247;SDS011;69560;52.206;21.018;2024-03-22T06:14:28;43.90;;;29.30;;
80247;SDS011;69560;52.206;21.018;2024-03-22T06:16:55;45.60;;;31.30;;
80247;SDS011;69560;52.206;21.018;2024-03-22T06:19:21;41.90;;;30.20;;
80247;SDS011;69560;52.206;21.018;2024-03-22T06:21:48;41.20;;;28.70;;
80247;SDS011;69560;52.206;21.018;2024-03-22T06:24:14;43.50;;;28.40;;
80247;SDS011;69560;52.206;21.018;2024-03-22T06:26:41;39.20;;;27.30;;
80247;SDS011;69560;52.206;21.018;2024-03-22T06:29:07;43.20;;;26.90;;
80247;SDS011;69560;52.206;21.018;2024-03-22T06:31:34;34.80;;;24.50;;
80247;SDS011;69560;52.206;21.018;2024-03-22T06:34:00;35.70;;;25.70;;
80247;SDS011;69560;52.206;21.018;2024-03-22T06:36:31;36.40;;;25.20;;
80247;SDS011;69560;52.206;21.018;2024-03-22T06:41:31;35.10;;;25.70;;
80247;SDS011;69560;52.206;21.018;2024-03-22T06:43:57;36.50;;;26.60;;
80247;SDS011;69560;52.206;21.018;2024-03-22T06:46:24;35.30;;;25.70;;
80247;SDS011;69560;52.206;21.018;2024-03-22T06:48:51;40.30;;;27.80;;
80247;SDS011;69560;52.206;21.018;2024-03-22T06:51:18;42.30;;;28.60;;
80247;SDS011;69560;52.206;21.018;2024-03-22T06:53:45;43.60;;;28.70;;
80247;SDS011;69560;52.206;21.018;2024-03-22T06:56:12;43.00;;;29.20;;
80247;SDS011;69560;52.206;21.018;2024-03-22T06:58:38;42.80;;;29.20;;
80247;SDS011;69560;52.206;21.018;2024-03-22T07:01:06;44.30;;;29.60;;
80247;SDS011;69560;52.206;21.018;2024-03-22T07:03:32;43.40;;;28.80;;
80247;SDS011;69560;52.206;21.018;2024-03-22T07:05:59;42.70;;;28.90;;
80247;SDS011;69560;52.206;21.018;2024-03-22T07:08:27;42.40;;;28.80;;
80247;SDS011;69560;52.206;21.018;2024-03-22T07:10:53;45.30;;;31.20;;
80247;SDS011;69560;52.206;21.018;2024-03-22T07:13:20;45.00;;;32.00;;
80247;SDS011;69560;52.206;21.018;2024-03-22T07:15:47;46.00;;;32.30;;
80247;SDS011;69560;52.206;21.018;2024-03-22T07:18:14;44.70;;;31.30;;
80247;SDS011;69560;52.206;21.018;2024-03-22T07:20:41;47.50;;;31.70;;
80247;SDS011;69560;52.206;21.018;2024-03-22T07:23:08;47.90;;;33.30;;
80247;SDS011;69560;52.206;21.018;2024-03-22T07:25:35;45.50;;;31.60;;
80247;SDS011;69560;52.206;21.018;2024-03-22T07:28:01;47.70;;;32.60;;
80247;SDS011;69560;52.206;21.018;2024-03-22T07:30:28;47.90;;;32.20;;
80247;SDS011;69560;52.206;21.018;2024-03-22T07:32:54;42.90;;;30.50;;
80247;SDS011;69560;52.206;21.018;2024-03-22T07:35:20;47.60;;;32.40;;
80247;SDS011;69560;52.206;21.018;2024-03-22T07:37:47;42.80;;;30.30;;
80247;SDS011;69560;52.206;21.018;2024-03-22T07:40:13;40.30;;;28.30;;
80247;SDS011;69560;52.206;21.018;2024-03-22T07:42:40;40.10;;;28.20;;
80247;SDS011;69560;52.206;21.018;2024-03-22T07:45:07;41.30;;;28.40;;
80247;SDS011;69560;52.206;21.018;2024-03-22T07:47:33;40.00;;;27.10;;
80247;SDS011;69560;52.206;21.018;2024-03-22T07:50:00;39.70;;;27.60;;
80247;SDS011;69560;52.206;21.018;2024-03-22T07:52:26;36.80;;;25.40;;
80247;SDS011;69560;52.206;21.018;2024-03-22T07:54:53;38.10;;;26.70;;
80247;SDS011;69560;52.206;21.018;2024-03-22T07:57:19;37.00;;;26.20;;
80247;SDS011;69560;52.206;21.018;2024-03-22T07:59:46;42.90;;;28.30;;
80247;SDS011;69560;52.206;21.018;2024-03-22T08:02:13;41.40;;;29.20;;
80247;SDS011;69560;52.206;21.018;2024-03-22T08:04:40;44.10;;;28.40;;
80247;SDS011;69560;52.206;21.018;2024-03-22T08:07:06;37.40;;;27.10;;
80247;SDS011;69560;52.206;21.018;2024-03-22T08:09:33;38.80;;;27.00;;
80247;SDS011;69560;52.206;21.018;2024-03-22T08:11:59;39.10;;;27.70;;
80247;SDS011;69560;52.206;21.018;2024-03-22T08:14:26;42.40;;;28.50;;
80247;SDS011;69560;52.206;21.018;2024-03-22T08:16:52;39.20;;;26.20;;
80247;SDS011;69560;52.206;21.018;2024-03-22T08:19:19;38.70;;;26.00;;
80247;SDS011;69560;52.206;21.018;2024-03-22T08:21:45;34.40;;;24.60;;
80247;SDS011;69560;52.206;21.018;2024-03-22T08:24:12;32.50;;;24.10;;
80247;SDS011;69560;52.206;21.018;2024-03-22T08:26:38;36.80;;;25.20;;
80247;SDS011;69560;52.206;21.018;2024-03-22T08:29:05;36.80;;;26.20;;
80247;SDS011;69560;52.206;21.018;2024-03-22T08:31:31;34.10;;;24.80;;
80247;SDS011;69560;52.206;21.018;2024-03-22T08:33:58;36.90;;;24.50;;
80247;SDS011;69560;52.206;21.018;2024-03-22T08:36:25;34.80;;;24.10;;
80247;SDS011;69560;52.206;21.018;2024-03-22T08:38:52;36.00;;;25.10;;
80247;SDS011;69560;52.206;21.018;2024-03-22T08:41:18;35.30;;;25.00;;
80247;SDS011;69560;52.206;21.018;2024-03-22T08:43:44;34.40;;;23.80;;
80247;SDS011;69560;52.206;21.018;2024-03-22T08:46:11;36.60;;;23.50;;
80247;SDS011;69560;52.206;21.018;2024-03-22T08:48:38;32.20;;;22.50;;
80247;SDS011;69560;52.206;21.018;2024-03-22T08:51:04;29.30;;;20.70;;
80247;SDS011;69560;52.206;21.018;2024-03-22T08:53:31;32.10;;;22.60;;
80247;SDS011;69560;52.206;21.018;2024-03-22T08:55:57;34.10;;;22.50;;
80247;SDS011;69560;52.206;21.018;2024-03-22T08:58:24;34.10;;;23.10;;
80247;SDS011;69560;52.206;21.018;2024-03-22T09:00:51;34.50;;;24.00;;
80247;SDS011;69560;52.206;21.018;2024-03-22T09:03:17;34.70;;;25.10;;
80247;SDS011;69560;52.206;21.018;2024-03-22T09:05:44;32.90;;;23.90;;
80247;SDS011;69560;52.206;21.018;2024-03-22T09:08:11;35.40;;;23.80;;
80247;SDS011;69560;52.206;21.018;2024-03-22T09:10:37;33.40;;;24.50;;
80247;SDS011;69560;52.206;21.018;2024-03-22T09:13:04;37.00;;;25.50;;
80247;SDS011;69560;52.206;21.018;2024-03-22T09:15:30;34.10;;;24.80;;
80247;SDS011;69560;52.206;21.018;2024-03-22T09:17:57;37.50;;;26.10;;
80247;SDS011;69560;52.206;21.018;2024-03-22T09:20:23;37.60;;;25.40;;
80247;SDS011;69560;52.206;21.018;2024-03-22T09:22:49;40.00;;;27.20;;
80247;SDS011;69560;52.206;21.018;2024-03-22T09:25:16;37.40;;;26.40;;
80247;SDS011;69560;52.206;21.018;2024-03-22T09:27:42;35.60;;;27.20;;
80247;SDS011;69560;52.206;21.018;2024-03-22T09:30:09;39.40;;;28.20;;
80247;SDS011;69560;52.206;21.018;2024-03-22T09:32:36;36.70;;;26.30;;
80247;SDS011;69560;52.206;21.018;2024-03-22T09:35:02;39.40;;;29.00;;
80247;SDS011;69560;52.206;21.018;2024-03-22T09:37:29;37.40;;;27.80;;
80247;SDS011;69560;52.206;21.018;2024-03-22T09:39:55;40.40;;;29.30;;
80247;SDS011;69560;52.206;21.018;2024-03-22T09:42:22;36.00;;;26.40;;
80247;SDS011;69560;52.206;21.018;2024-03-22T09:44:51;36.20;;;26.20;;
80247;SDS011;69560;52.206;21.018;2024-03-22T09:47:18;39.10;;;27.30;;
80247;SDS011;69560;52.206;21.018;2024-03-22T09:49:47;36.50;;;26.70;;
80247;SDS011;69560;52.206;21.018;2024-03-22T09:52:15;35.60;;;26.30;;
80247;SDS011;69560;52.206;21.018;2024-03-22T09:54:45;37.00;;;27.70;;
80247;SDS011;69560;52.206;21.018;2024-03-22T09:57:15;37.50;;;26.60;;
80247;SDS011;69560;52.206;21.018;2024-03-22T09:59:42;43.70;;;29.50;;
80247;SDS011;69560;52.206;21.018;2024-03-22T10:02:10;37.70;;;26.80;;
80247;SDS011;69560;52.206;21.018;2024-03-22T10:04:40;35.90;;;27.00;;
80247;SDS011;69560;52.206;21.018;2024-03-22T10:07:07;33.10;;;24.90;;
80247;SDS011;69560;52.206;21.018;2024-03-22T10:09:36;37.30;;;28.10;;
80247;SDS011;69560;52.206;21.018;2024-03-22T10:12:03;34.70;;;25.70;;
80247;SDS011;69560;52.206;21.018;2024-03-22T10:14:30;37.60;;;27.40;;
80247;SDS011;69560;52.206;21.018;2024-03-22T10:16:58;33.70;;;25.10;;
80247;SDS011;69560;52.206;21.018;2024-03-22T10:19:25;31.70;;;24.10;;
80247;SDS011;69560;52.206;21.018;2024-03-22T10:22:04;30.70;;;21.80;;
80247;SDS011;69560;52.206;21.018;2024-03-22T10:24:31;31.20;;;21.90;;
80247;SDS011;69560;52.206;21.018;2024-03-22T10:27:01;28.00;;;20.10;;
80247;SDS011;69560;52.206;21.018;2024-03-22T10:29:27;26.80;;;21.30;;
80247;SDS011;69560;52.206;21.018;2024-03-22T10:31:54;28.20;;;20.90;;
80247;SDS011;69560;52.206;21.018;2024-03-22T10:34:22;29.20;;;21.00;;
80247;SDS011;69560;52.206;21.018;2024-03-22T10:36:50;28.10;;;21.30;;
80247;SDS011;69560;52.206;21.018;2024-03-22T10:39:17;27.90;;;21.00;;
80247;SDS011;69560;52.206;21.018;2024-03-22T10:41:48;30.20;;;21.80;;
80247;SDS011;69560;52.206;21.018;2024-03-22T10:44:15;31.50;;;21.30;;
80247;SDS011;69560;52.206;21.018;2024-03-22T10:46:43;28.60;;;21.30;;
80247;SDS011;69560;52.206;21.018;2024-03-22T10:49:18;31.00;;;22.10;;
80247;SDS011;69560;52.206;21.018;2024-03-22T10:51:49;29.80;;;21.30;;
80247;SDS011;69560;52.206;21.018;2024-03-22T10:54:21;28.60;;;22.30;;
80247;SDS011;69560;52.206;21.018;2024-03-22T10:56:52;33.30;;;23.50;;
80247;SDS011;69560;52.206;21.018;2024-03-22T10:59:21;29.60;;;22.80;;
80247;SDS011;69560;52.206;21.018;2024-03-22T11:01:48;33.20;;;23.30;;
80247;SDS011;69560;52.206;21.018;2024-03-22T11:04:19;33.90;;;24.80;;
80247;SDS011;69560;52.206;21.018;2024-03-22T11:06:49;30.60;;;22.50;;
80247;SDS011;69560;52.206;21.018;2024-03-22T11:09:22;31.30;;;23.90;;
80247;SDS011;69560;52.206;21.018;2024-03-22T11:11:52;36.00;;;24.90;;
80247;SDS011;69560;52.206;21.018;2024-03-22T11:14:20;30.50;;;23.00;;
80247;SDS011;69560;52.206;21.018;2024-03-22T11:16:52;28.50;;;21.40;;
80247;SDS011;69560;52.206;21.018;2024-03-22T11:19:19;30.10;;;22.50;;
80247;SDS011;69560;52.206;21.018;2024-03-22T11:21:45;27.50;;;20.70;;
80247;SDS011;69560;52.206;21.018;2024-03-22T11:24:12;24.40;;;19.50;;
80247;SDS011;69560;52.206;21.018;2024-03-22T11:26:38;27.60;;;20.70;;
80247;SDS011;69560;52.206;21.018;2024-03-22T11:29:05;31.00;;;21.80;;
80247;SDS011;69560;52.206;21.018;2024-03-22T11:31:32;26.90;;;20.60;;
80247;SDS011;69560;52.206;21.018;2024-03-22T11:33:58;26.50;;;19.60;;
80247;SDS011;69560;52.206;21.018;2024-03-22T11:36:26;25.60;;;19.90;;
80247;SDS011;69560;52.206;21.018;2024-03-22T11:38:53;25.80;;;19.30;;
80247;SDS011;69560;52.206;21.018;2024-03-22T11:41:22;24.30;;;18.20;;
80247;SDS011;69560;52.206;21.018;2024-03-22T11:43:53;25.60;;;19.90;;
80247;SDS011;69560;52.206;21.018;2024-03-22T11:46:21;28.40;;;19.70;;
80247;SDS011;69560;52.206;21.018;2024-03-22T11:48:54;28.00;;;19.40;;
80247;SDS011;69560;52.206;21.018;2024-03-22T11:51:20;25.90;;;19.30;;
80247;SDS011;69560;52.206;21.018;2024-03-22T11:53:53;24.10;;;19.30;;
80247;SDS011;69560;52.206;21.018;2024-03-22T11:56:22;26.60;;;19.40;;
80247;SDS011;69560;52.206;21.018;2024-03-22T11:58:49;25.70;;;20.10;;
80247;SDS011;69560;52.206;21.018;2024-03-22T12:01:15;26.60;;;20.60;;
80247;SDS011;69560;52.206;21.018;2024-03-22T12:03:48;23.80;;;18.70;;
80247;SDS011;69560;52.206;21.018;2024-03-22T12:06:15;24.70;;;18.30;;
80247;SDS011;69560;52.206;21.018;2024-03-22T12:08:42;22.50;;;17.60;;
80247;SDS011;69560;52.206;21.018;2024-03-22T12:11:11;23.80;;;15.70;;
80247;SDS011;69560;52.206;21.018;2024-03-22T12:13:39;31.80;;;20.60;;
80247;SDS011;69560;52.206;21.018;2024-03-22T12:16:06;22.80;;;17.10;;
80247;SDS011;69560;52.206;21.018;2024-03-22T12:18:33;19.70;;;15.10;;
80247;SDS011;69560;52.206;21.018;2024-03-22T12:21:00;20.90;;;15.40;;
80247;SDS011;69560;52.206;21.018;2024-03-22T12:23:27;20.70;;;15.90;;
80247;SDS011;69560;52.206;21.018;2024-03-22T12:25:53;18.60;;;14.30;;
80247;SDS011;69560;52.206;21.018;2024-03-22T12:28:20;23.80;;;17.20;;
80247;SDS011;69560;52.206;21.018;2024-03-22T12:30:49;22.60;;;16.00;;
80247;SDS011;69560;52.206;21.018;2024-03-22T12:33:15;20.20;;;14.90;;
80247;SDS011;69560;52.206;21.018;2024-03-22T12:35:42;18.80;;;15.30;;
80247;SDS011;69560;52.206;21.018;2024-03-22T12:38:09;16.30;;;12.50;;
80247;SDS011;69560;52.206;21.018;2024-03-22T12:40:38;20.50;;;14.90;;
80247;SDS011;69560;52.206;21.018;2024-03-22T12:43:05;18.90;;;14.50;;
80247;SDS011;69560;52.206;21.018;2024-03-22T12:45:32;19.70;;;15.00;;
80247;SDS011;69560;52.206;21.018;2024-03-22T12:47:58;18.70;;;13.50;;
80247;SDS011;69560;52.206;21.018;2024-03-22T12:50:26;16.10;;;12.80;;
80247;SDS011;69560;52.206;21.018;2024-03-22T12:52:53;20.40;;;13.90;;
80247;SDS011;69560;52.206;21.018;2024-03-22T12:55:20;18.70;;;13.50;;
80247;SDS011;69560;52.206;21.018;2024-03-22T12:57:46;16.80;;;13.10;;
80247;SDS011;69560;52.206;21.018;2024-03-22T13:00:13;15.50;;;13.00;;
80247;SDS011;69560;52.206;21.018;2024-03-22T13:02:44;16.70;;;13.40;;
80247;SDS011;69560;52.206;21.018;2024-03-22T13:05:11;17.70;;;13.00;;
80247;SDS011;69560;52.206;21.018;2024-03-22T13:07:38;16.80;;;13.50;;
80247;SDS011;69560;52.206;21.018;2024-03-22T13:10:05;19.70;;;14.20;;
80247;SDS011;69560;52.206;21.018;2024-03-22T13:12:33;19.20;;;13.80;;
80247;SDS011;69560;52.206;21.018;2024-03-22T13:15:01;18.00;;;13.60;;
80247;SDS011;69560;52.206;21.018;2024-03-22T13:17:28;18.90;;;14.50;;
80247;SDS011;69560;52.206;21.018;2024-03-22T13:19:54;21.00;;;14.80;;
80247;SDS011;69560;52.206;21.018;2024-03-22T13:22:21;17.70;;;14.60;;
80247;SDS011;69560;52.206;21.018;2024-03-22T13:24:48;19.10;;;14.60;;
80247;SDS011;69560;52.206;21.018;2024-03-22T13:27:16;20.50;;;15.30;;
80247;SDS011;69560;52.206;21.018;2024-03-22T13:29:43;16.50;;;13.90;;
80247;SDS011;69560;52.206;21.018;2024-03-22T13:32:10;21.70;;;14.80;;
80247;SDS011;69560;52.206;21.018;2024-03-22T13:34:37;17.80;;;12.70;;
80247;SDS011;69560;52.206;21.018;2024-03-22T13:37:04;20.40;;;15.20;;
80247;SDS011;69560;52.206;21.018;2024-03-22T13:39:34;19.50;;;15.10;;
80247;SDS011;69560;52.206;21.018;2024-03-22T13:42:01;18.60;;;14.80;;
80247;SDS011;69560;52.206;21.018;2024-03-22T13:44:27;20.20;;;16.10;;
80247;SDS011;69560;52.206;21.018;2024-03-22T13:46:55;18.10;;;14.00;;
80247;SDS011;69560;52.206;21.018;2024-03-22T13:49:23;18.50;;;15.30;;
80247;SDS011;69560;52.206;21.018;2024-03-22T13:51:50;23.90;;;16.60;;
80247;SDS011;69560;52.206;21.018;2024-03-22T13:54:16;22.40;;;16.50;;
80247;SDS011;69560;52.206;21.018;2024-03-22T13:56:43;23.70;;;17.60;;
80247;SDS011;69560;52.206;21.018;2024-03-22T13:59:09;21.60;;;17.60;;
80247;SDS011;69560;52.206;21.018;2024-03-22T14:01:36;21.50;;;17.50;;
80247;SDS011;69560;52.206;21.018;2024-03-22T14:04:04;21.20;;;17.40;;
80247;SDS011;69560;52.206;21.018;2024-03-22T14:06:31;21.80;;;17.50;;
80247;SDS011;69560;52.206;21.018;2024-03-22T14:08:58;22.50;;;17.00;;
80247;SDS011;69560;52.206;21.018;2024-03-22T14:11:29;23.60;;;17.30;;